createdAt,value
2023-04-26T00:00:13.485Z,6.30
2023-04-26T00:01:16.740Z,6.30
2023-04-26T00:02:18.687Z,6.30
2023-04-26T00:03:20.876Z,6.30
2023-04-26T00:04:23.108Z,6.40
2023-04-26T00:05:25.438Z,6.30
2023-04-26T00:06:27.392Z,6.30
2023-04-26T00:07:30.662Z,6.30
2023-04-26T00:08:32.723Z,6.20
2023-04-26T00:09:34.506Z,6.20
2023-04-26T00:10:36.418Z,6.20
2023-04-26T00:11:38.138Z,6.20
2023-04-26T00:12:41.226Z,6.20
2023-04-26T00:13:43.024Z,6.20
2023-04-26T00:14:45.125Z,6.20
2023-04-26T00:15:46.906Z,6.20
2023-04-26T00:16:48.981Z,6.20
2023-04-26T00:17:50.780Z,6.20
2023-04-26T00:18:52.746Z,6.20
2023-04-26T00:19:54.807Z,6.20
2023-04-26T00:20:56.527Z,6.10
2023-04-26T00:21:58.536Z,6.20
2023-04-26T00:23:00.321Z,6.20
2023-04-26T00:24:02.057Z,6.10
2023-04-26T00:25:04.144Z,6.10
2023-04-26T00:26:05.899Z,6.20
2023-04-26T00:27:10.318Z,6.20
2023-04-26T00:28:12.038Z,6.20
2023-04-26T00:29:13.808Z,6.20
2023-04-26T00:30:28.057Z,6.20
2023-04-26T00:31:29.835Z,6.30
2023-04-26T00:32:32.006Z,6.10
2023-04-26T00:33:33.919Z,6.10
2023-04-26T00:34:37.403Z,6.10
2023-04-26T00:35:39.296Z,6.00
2023-04-26T00:36:41.120Z,6.00
2023-04-26T00:37:42.863Z,6.00
2023-04-26T00:38:45.081Z,6.00
2023-04-26T00:39:46.835Z,6.00
2023-04-26T00:40:48.535Z,6.00
2023-04-26T00:41:50.386Z,6.00
2023-04-26T00:42:58.455Z,6.00
2023-04-26T00:44:00.333Z,5.90
2023-04-26T00:45:02.112Z,5.90
2023-04-26T00:46:03.974Z,5.90
2023-04-26T00:47:06.413Z,5.90
2023-04-26T00:48:08.366Z,5.90
2023-04-26T00:49:15.825Z,5.80
2023-04-26T00:50:17.655Z,5.80
2023-04-26T00:51:19.684Z,5.80
2023-04-26T00:52:22.560Z,5.80
2023-04-26T00:53:25.004Z,5.70
2023-04-26T00:54:27.106Z,5.80
2023-04-26T00:55:28.884Z,5.70
2023-04-26T00:56:32.050Z,5.70
2023-04-26T00:57:33.770Z,5.70
2023-04-26T00:58:37.371Z,5.70
2023-04-26T00:59:39.132Z,5.70
2023-04-26T01:00:40.799Z,5.70
2023-04-26T01:01:42.701Z,5.70
2023-04-26T01:02:44.991Z,5.60
2023-04-26T01:03:47.986Z,5.60
2023-04-26T01:04:50.553Z,5.60
2023-04-26T01:05:53.204Z,5.70
2023-04-26T01:06:56.073Z,5.60
2023-04-26T01:07:59.795Z,5.60
2023-04-26T01:09:08.399Z,5.60
2023-04-26T01:10:10.741Z,5.60
2023-04-26T01:11:12.463Z,5.60
2023-04-26T01:12:14.501Z,5.60
2023-04-26T01:13:16.859Z,5.60
2023-04-26T01:14:18.696Z,5.60
2023-04-26T01:15:20.642Z,5.50
2023-04-26T01:16:23.994Z,5.60
2023-04-26T01:17:25.992Z,5.50
2023-04-26T01:18:27.865Z,5.50
2023-04-26T01:19:29.524Z,5.50
2023-04-26T01:20:31.322Z,5.50
2023-04-26T01:21:33.367Z,5.50
2023-04-26T01:22:36.333Z,5.50
2023-04-26T01:23:38.598Z,5.50
2023-04-26T01:24:42.824Z,5.50
2023-04-26T01:25:44.956Z,5.50
2023-04-26T01:26:46.789Z,5.50
2023-04-26T01:27:48.558Z,5.40
2023-04-26T01:28:50.767Z,5.40
2023-04-26T01:29:52.800Z,5.40
2023-04-26T01:30:55.048Z,5.40
2023-04-26T01:31:56.806Z,5.40
2023-04-26T01:32:58.481Z,5.40
2023-04-26T01:34:00.440Z,5.40
2023-04-26T01:35:02.506Z,5.40
2023-04-26T01:36:11.658Z,5.40
2023-04-26T01:37:13.603Z,5.40
2023-04-26T01:38:16.182Z,5.40
2023-04-26T01:39:17.981Z,5.40
2023-04-26T01:40:19.735Z,5.40
2023-04-26T01:41:21.481Z,5.40
2023-04-26T01:42:23.252Z,5.30
2023-04-26T01:43:25.036Z,5.40
2023-04-26T01:44:26.741Z,5.30
2023-04-26T01:45:30.508Z,5.40
2023-04-26T01:46:32.322Z,5.40
2023-04-26T01:47:34.117Z,5.40
2023-04-26T01:48:35.995Z,5.30
2023-04-26T01:49:37.816Z,5.30
2023-04-26T01:50:39.621Z,5.30
2023-04-26T01:51:41.610Z,5.30
2023-04-26T01:52:43.285Z,5.30
2023-04-26T01:53:45.019Z,5.20
2023-04-26T01:54:46.835Z,5.20
2023-04-26T01:55:48.629Z,5.20
2023-04-26T01:56:50.790Z,5.20
2023-04-26T01:57:52.547Z,5.10
2023-04-26T01:58:56.374Z,5.10
2023-04-26T01:59:59.327Z,5.10
2023-04-26T02:01:08.612Z,5.10
2023-04-26T02:02:10.663Z,5.00
2023-04-26T02:03:12.591Z,5.00
2023-04-26T02:04:14.464Z,5.00
2023-04-26T02:05:16.265Z,5.00
2023-04-26T02:06:18.071Z,4.90
2023-04-26T02:07:20.086Z,4.90
2023-04-26T02:08:21.843Z,4.90
2023-04-26T02:09:23.524Z,4.90
2023-04-26T02:10:25.252Z,4.90
2023-04-26T02:11:27.111Z,4.80
2023-04-26T02:12:28.908Z,4.80
2023-04-26T02:13:31.147Z,4.80
2023-04-26T02:14:32.995Z,4.70
2023-04-26T02:15:34.720Z,4.70
2023-04-26T02:16:36.583Z,4.70
2023-04-26T02:17:38.845Z,4.70
2023-04-26T02:18:41.652Z,4.70
2023-04-26T02:19:43.471Z,4.70
2023-04-26T02:20:45.948Z,4.60
2023-04-26T02:21:54.732Z,4.70
2023-04-26T02:22:56.518Z,4.70
2023-04-26T02:23:58.186Z,4.70
2023-04-26T02:24:59.908Z,4.70
2023-04-26T02:26:02.080Z,4.70
2023-04-26T02:27:05.385Z,4.70
2023-04-26T02:28:07.110Z,4.60
2023-04-26T02:29:08.820Z,4.60
2023-04-26T02:30:11.017Z,4.60
2023-04-26T02:31:12.841Z,4.50
2023-04-26T02:32:14.688Z,4.50
2023-04-26T02:33:16.429Z,4.50
2023-04-26T02:34:18.134Z,4.50
2023-04-26T02:35:19.853Z,4.40
2023-04-26T02:36:21.530Z,4.40
2023-04-26T02:37:23.344Z,4.40
2023-04-26T02:38:28.138Z,4.40
2023-04-26T02:39:29.987Z,4.40
2023-04-26T02:40:31.813Z,4.40
2023-04-26T02:41:33.774Z,4.30
2023-04-26T02:42:35.606Z,4.30
2023-04-26T02:43:37.788Z,4.30
2023-04-26T02:44:39.763Z,4.30
2023-04-26T02:45:45.500Z,4.30
2023-04-26T02:46:47.231Z,4.30
2023-04-26T02:47:48.965Z,4.30
2023-04-26T02:48:51.084Z,4.30
2023-04-26T02:49:53.099Z,4.30
2023-04-26T02:50:54.796Z,4.30
2023-04-26T02:51:57.060Z,4.30
2023-04-26T02:52:58.746Z,4.20
2023-04-26T02:54:00.552Z,4.30
2023-04-26T02:55:04.529Z,4.20
2023-04-26T02:56:07.033Z,4.20
2023-04-26T02:57:08.735Z,4.20
2023-04-26T02:58:10.425Z,4.20
2023-04-26T02:59:12.179Z,4.20
2023-04-26T03:00:14.281Z,4.20
2023-04-26T03:01:16.468Z,4.20
2023-04-26T03:02:18.382Z,4.20
2023-04-26T03:03:21.094Z,4.20
2023-04-26T03:04:22.967Z,4.20
2023-04-26T03:05:25.768Z,4.20
2023-04-26T03:06:28.582Z,4.20
2023-04-26T03:07:31.397Z,4.20
2023-04-26T03:08:35.040Z,4.20
2023-04-26T03:09:38.791Z,4.20
2023-04-26T03:10:40.627Z,4.20
2023-04-26T03:11:42.518Z,4.20
2023-04-26T03:12:44.202Z,4.20
2023-04-26T03:13:45.911Z,4.20
2023-04-26T03:14:47.747Z,4.20
2023-04-26T03:15:49.973Z,4.20
2023-04-26T03:16:51.774Z,4.20
2023-04-26T03:17:53.668Z,4.20
2023-04-26T03:18:55.568Z,4.20
2023-04-26T03:19:57.386Z,4.10
2023-04-26T03:20:59.132Z,4.10
2023-04-26T03:22:01.342Z,4.10
2023-04-26T03:23:03.475Z,4.10
2023-04-26T03:24:05.560Z,4.10
2023-04-26T03:25:07.821Z,4.10
2023-04-26T03:26:09.591Z,4.10
2023-04-26T03:27:11.315Z,4.10
2023-04-26T03:28:13.108Z,4.00
2023-04-26T03:29:14.924Z,4.10
2023-04-26T03:30:16.868Z,4.00
2023-04-26T03:31:19.362Z,4.00
2023-04-26T03:32:21.046Z,4.00
2023-04-26T03:33:22.957Z,4.00
2023-04-26T03:34:24.656Z,4.00
2023-04-26T03:35:26.389Z,4.00
2023-04-26T03:36:31.173Z,4.00
2023-04-26T03:37:32.893Z,4.00
2023-04-26T03:38:34.715Z,4.00
2023-04-26T03:39:36.752Z,4.00
2023-04-26T03:40:38.494Z,4.00
2023-04-26T03:41:40.544Z,4.00
2023-04-26T03:42:42.471Z,4.00
2023-04-26T03:43:44.244Z,4.00
2023-04-26T03:44:45.949Z,4.00
2023-04-26T03:45:50.100Z,4.00
2023-04-26T03:46:52.175Z,4.00
2023-04-26T03:47:53.974Z,4.00
2023-04-26T03:48:55.858Z,4.00
2023-04-26T03:49:58.035Z,3.90
2023-04-26T03:50:59.754Z,3.90
2023-04-26T03:52:01.573Z,3.90
2023-04-26T03:53:03.331Z,3.80
2023-04-26T03:54:05.273Z,3.90
2023-04-26T03:55:09.666Z,3.80
2023-04-26T03:56:11.576Z,3.80
2023-04-26T03:57:13.294Z,3.80
2023-04-26T03:58:15.138Z,3.80
2023-04-26T03:59:16.962Z,3.80
2023-04-26T04:00:18.737Z,3.80
2023-04-26T04:01:20.721Z,3.70
2023-04-26T04:02:22.469Z,3.70
2023-04-26T04:03:24.893Z,3.70
2023-04-26T04:04:26.985Z,3.60
2023-04-26T04:05:29.095Z,3.60
2023-04-26T04:06:31.128Z,3.50
2023-04-26T04:07:32.952Z,3.50
2023-04-26T04:08:34.737Z,3.50
2023-04-26T04:09:36.933Z,3.50
2023-04-26T04:10:38.693Z,3.50
2023-04-26T04:11:40.612Z,3.50
2023-04-26T04:12:42.372Z,3.40
2023-04-26T04:13:44.151Z,3.40
2023-04-26T04:14:46.019Z,3.40
2023-04-26T04:15:48.264Z,3.40
2023-04-26T04:16:49.975Z,3.40
2023-04-26T04:17:51.787Z,3.30
2023-04-26T04:18:53.836Z,3.40
2023-04-26T04:19:55.857Z,3.30
2023-04-26T04:20:57.614Z,3.30
2023-04-26T04:21:59.387Z,3.30
2023-04-26T04:23:04.270Z,3.30
2023-04-26T04:24:06.301Z,3.20
2023-04-26T04:25:10.358Z,3.20
2023-04-26T04:26:12.706Z,3.20
2023-04-26T04:27:15.038Z,3.20
2023-04-26T04:28:17.008Z,3.20
2023-04-26T04:29:18.761Z,3.20
2023-04-26T04:30:20.444Z,3.20
2023-04-26T04:31:22.952Z,3.10
2023-04-26T04:32:24.898Z,3.20
2023-04-26T04:33:28.516Z,3.10
2023-04-26T04:34:33.666Z,3.10
2023-04-26T04:35:35.389Z,3.10
2023-04-26T04:36:38.974Z,3.10
2023-04-26T04:37:40.673Z,3.10
2023-04-26T04:38:42.457Z,3.10
2023-04-26T04:39:44.318Z,3.10
2023-04-26T04:40:49.933Z,3.10
2023-04-26T04:41:52.250Z,3.10
2023-04-26T04:42:54.842Z,3.20
2023-04-26T04:43:56.518Z,3.20
2023-04-26T04:44:59.654Z,3.20
2023-04-26T04:46:01.501Z,3.30
2023-04-26T04:47:03.204Z,3.20
2023-04-26T04:48:05.357Z,3.20
2023-04-26T04:49:09.431Z,3.20
2023-04-26T04:50:11.557Z,3.20
2023-04-26T04:51:13.363Z,3.20
2023-04-26T04:52:16.299Z,3.20
2023-04-26T04:56:00.939Z,3.20
2023-04-26T04:57:07.880Z,3.20
2023-04-26T04:58:09.771Z,3.30
2023-04-26T04:59:12.140Z,3.30
2023-04-26T05:00:15.911Z,3.20
2023-04-26T05:01:17.665Z,3.30
2023-04-26T05:02:20.030Z,3.30
2023-04-26T05:03:22.090Z,3.30
2023-04-26T05:04:24.532Z,3.30
2023-04-26T05:05:27.298Z,3.30
2023-04-26T05:06:29.927Z,3.30
2023-04-26T05:07:35.183Z,3.30
2023-04-26T05:08:36.904Z,3.30
2023-04-26T05:09:38.732Z,3.40
2023-04-26T05:10:40.899Z,3.40
2023-04-26T05:11:42.756Z,3.40
2023-04-26T05:12:44.543Z,3.40
2023-04-26T05:13:47.109Z,3.40
2023-04-26T05:14:48.835Z,3.50
2023-04-26T05:15:50.529Z,3.50
2023-04-26T05:16:52.277Z,3.50
2023-04-26T05:17:55.910Z,3.60
2023-04-26T05:18:57.726Z,3.60
2023-04-26T05:19:59.701Z,3.70
2023-04-26T05:21:01.427Z,3.70
2023-04-26T05:22:03.217Z,3.70
2023-04-26T05:23:05.000Z,3.80
2023-04-26T05:24:06.873Z,3.90
2023-04-26T05:25:10.504Z,3.90
2023-04-26T05:26:16.949Z,4.00
2023-04-26T05:27:18.679Z,4.00
2023-04-26T05:28:20.586Z,4.10
2023-04-26T05:29:22.374Z,4.10
2023-04-26T05:30:24.187Z,4.10
2023-04-26T05:31:26.184Z,4.20
2023-04-26T05:32:27.973Z,4.20
2023-04-26T05:33:29.825Z,4.20
2023-04-26T05:34:31.561Z,4.30
2023-04-26T05:35:33.744Z,4.30
2023-04-26T05:36:35.745Z,4.30
2023-04-26T05:37:39.292Z,4.30
2023-04-26T05:38:41.402Z,4.30
2023-04-26T05:39:43.956Z,4.30
2023-04-26T05:40:45.811Z,4.30
2023-04-26T05:41:47.793Z,4.40
2023-04-26T05:42:50.802Z,4.40
2023-04-26T05:43:52.727Z,4.40
2023-04-26T05:44:59.002Z,4.40
2023-04-26T05:46:02.104Z,4.50
2023-04-26T05:47:03.990Z,4.50
2023-04-26T05:48:06.417Z,4.60
2023-04-26T05:49:08.190Z,4.60
2023-04-26T05:50:10.270Z,4.70
2023-04-26T05:51:11.986Z,4.70
2023-04-26T05:52:13.921Z,4.80
2023-04-26T05:53:16.136Z,4.80
2023-04-26T05:54:17.859Z,4.90
2023-04-26T05:55:21.379Z,4.90
2023-04-26T05:56:24.204Z,4.90
2023-04-26T05:57:26.080Z,5.00
2023-04-26T05:58:28.088Z,5.00
2023-04-26T05:59:32.910Z,5.10
2023-04-26T06:00:35.197Z,5.20
2023-04-26T06:01:36.928Z,5.20
2023-04-26T06:02:38.899Z,5.30
2023-04-26T06:03:40.967Z,5.30
2023-04-26T06:04:43.051Z,5.30
2023-04-26T06:05:45.052Z,5.40
2023-04-26T06:06:46.849Z,5.40
2023-04-26T06:07:48.606Z,5.50
2023-04-26T06:08:50.307Z,5.50
2023-04-26T06:09:52.289Z,5.60
2023-04-26T06:10:54.603Z,5.60
2023-04-26T06:11:56.280Z,5.70
2023-04-26T06:12:58.057Z,5.70
2023-04-26T06:13:59.777Z,5.80
2023-04-26T06:15:01.892Z,5.80
2023-04-26T06:16:04.525Z,5.80
2023-04-26T06:17:06.322Z,5.90
2023-04-26T06:18:08.723Z,5.90
2023-04-26T06:19:10.530Z,5.90
2023-04-26T06:20:12.818Z,6.00
2023-04-26T06:21:14.538Z,6.10
2023-04-26T06:22:16.285Z,6.10
2023-04-26T06:23:20.212Z,6.10
2023-04-26T06:24:23.132Z,6.20
2023-04-26T06:25:24.953Z,6.30
2023-04-26T06:26:26.736Z,6.30
2023-04-26T06:27:28.400Z,6.40
2023-04-26T06:28:30.168Z,6.40
2023-04-26T06:29:34.797Z,6.50
2023-04-26T06:30:36.602Z,6.50
2023-04-26T06:31:38.478Z,6.60
2023-04-26T06:32:42.227Z,6.60
2023-04-26T06:33:43.956Z,6.70
2023-04-26T06:34:45.772Z,6.80
2023-04-26T06:35:47.522Z,6.80
2023-04-26T06:36:49.364Z,6.90
2023-04-26T06:37:51.415Z,6.90
2023-04-26T06:38:53.144Z,6.90
2023-04-26T06:39:54.889Z,7.00
2023-04-26T06:40:56.947Z,7.00
2023-04-26T06:41:58.674Z,7.10
2023-04-26T06:43:00.631Z,7.10
2023-04-26T06:44:02.444Z,7.20
2023-04-26T06:45:04.514Z,7.10
2023-04-26T06:46:06.508Z,7.20
2023-04-26T06:47:09.556Z,7.30
2023-04-26T06:48:11.611Z,7.40
2023-04-26T06:49:13.374Z,7.40
2023-04-26T06:50:15.049Z,7.40
2023-04-26T06:51:16.849Z,7.50
2023-04-26T06:52:20.537Z,7.60
2023-04-26T06:53:23.478Z,7.60
2023-04-26T06:54:29.211Z,7.70
2023-04-26T06:55:30.940Z,7.70
2023-04-26T06:56:32.835Z,7.70
2023-04-26T06:57:34.517Z,7.70
2023-04-26T06:58:36.643Z,7.80
2023-04-26T06:59:38.394Z,7.80
2023-04-26T07:00:40.141Z,7.80
2023-04-26T07:01:42.449Z,7.80
2023-04-26T07:02:44.436Z,7.80
2023-04-26T07:03:46.333Z,7.80
2023-04-26T07:04:48.440Z,7.80
2023-04-26T07:05:50.594Z,7.90
2023-04-26T07:06:52.695Z,7.90
2023-04-26T07:07:54.441Z,7.90
2023-04-26T07:08:56.165Z,7.90
2023-04-26T07:09:57.980Z,7.90
2023-04-26T07:10:59.728Z,7.90
2023-04-26T07:12:01.754Z,7.90
2023-04-26T07:13:03.493Z,7.90
2023-04-26T07:14:06.058Z,8.00
2023-04-26T07:15:08.536Z,8.00
2023-04-26T07:16:10.542Z,8.10
2023-04-26T07:17:12.793Z,8.20
2023-04-26T07:18:14.555Z,8.20
2023-04-26T07:19:16.714Z,8.30
2023-04-26T07:20:21.042Z,8.40
2023-04-26T07:21:22.943Z,8.40
2023-04-26T07:22:24.765Z,8.50
2023-04-26T07:23:26.495Z,8.50
2023-04-26T07:24:28.436Z,8.60
2023-04-26T07:25:30.332Z,8.60
2023-04-26T07:26:32.051Z,8.60
2023-04-26T07:27:33.768Z,8.70
2023-04-26T07:28:35.567Z,8.60
2023-04-26T07:29:37.383Z,8.60
2023-04-26T07:30:39.408Z,8.60
2023-04-26T07:31:41.680Z,8.70
2023-04-26T07:32:43.613Z,8.70
2023-04-26T07:33:45.445Z,8.70
2023-04-26T07:34:47.284Z,8.70
2023-04-26T07:35:59.837Z,8.70
2023-04-26T07:37:01.663Z,8.70
2023-04-26T07:38:04.275Z,8.70
2023-04-26T07:39:06.746Z,8.60
2023-04-26T07:40:10.440Z,8.60
2023-04-26T07:41:13.098Z,8.50
2023-04-26T07:42:15.488Z,8.60
2023-04-26T07:43:18.058Z,8.60
2023-04-26T07:44:19.785Z,8.70
2023-04-26T07:45:21.754Z,8.70
2023-04-26T07:46:23.697Z,8.60
2023-04-26T07:47:25.648Z,8.60
2023-04-26T07:48:27.711Z,8.60
2023-04-26T07:49:29.483Z,8.60
2023-04-26T07:50:31.346Z,8.60
2023-04-26T07:51:35.289Z,8.50
2023-04-26T07:52:37.299Z,8.60
2023-04-26T07:53:39.833Z,8.50
2023-04-26T07:54:42.116Z,8.50
2023-04-26T07:55:44.001Z,8.50
2023-04-26T07:56:45.945Z,8.50
2023-04-26T07:57:47.630Z,8.50
2023-04-26T07:58:49.365Z,8.50
2023-04-26T07:59:51.107Z,8.50
2023-04-26T08:00:52.887Z,8.50
2023-04-26T08:01:54.715Z,8.50
2023-04-26T08:02:56.701Z,8.40
2023-04-26T08:03:59.012Z,8.40
2023-04-26T08:05:01.418Z,8.40
2023-04-26T08:06:04.102Z,8.40
2023-04-26T08:07:05.903Z,8.40
2023-04-26T08:08:07.587Z,8.40
2023-04-26T08:09:09.906Z,8.50
2023-04-26T08:10:12.188Z,8.50
2023-04-26T08:11:14.003Z,8.50
2023-04-26T08:12:15.789Z,8.50
2023-04-26T08:13:17.634Z,8.50
2023-04-26T08:14:19.313Z,8.50
2023-04-26T08:15:21.207Z,8.50
2023-04-26T08:16:22.960Z,8.50
2023-04-26T08:17:24.722Z,8.60
2023-04-26T08:18:26.471Z,8.70
2023-04-26T08:19:31.630Z,8.70
2023-04-26T08:20:33.455Z,8.70
2023-04-26T08:21:35.208Z,8.80
2023-04-26T08:22:37.005Z,9.00
2023-04-26T08:23:38.709Z,9.10
2023-04-26T08:24:40.470Z,9.30
2023-04-26T08:25:42.308Z,9.40
2023-04-26T08:26:44.015Z,9.60
2023-04-26T08:27:45.875Z,9.80
2023-04-26T08:28:47.574Z,9.90
2023-04-26T08:29:49.314Z,10.00
2023-04-26T08:30:51.053Z,10.10
2023-04-26T08:31:52.920Z,10.20
2023-04-26T08:32:54.676Z,10.40
2023-04-26T08:33:56.894Z,10.50
2023-04-26T08:34:58.668Z,10.60
2023-04-26T08:36:01.813Z,10.70
2023-04-26T08:37:03.679Z,10.80
2023-04-26T08:38:05.435Z,10.90
2023-04-26T08:39:07.833Z,11.00
2023-04-26T08:40:10.233Z,11.00
2023-04-26T08:41:16.825Z,10.90
2023-04-26T08:42:19.086Z,10.80
2023-04-26T08:43:21.337Z,10.80
2023-04-26T08:44:24.654Z,10.70
2023-04-26T08:45:26.388Z,10.70
2023-04-26T08:46:30.650Z,10.70
2023-04-26T08:47:40.210Z,10.70
2023-04-26T08:48:42.099Z,10.60
2023-04-26T08:49:53.563Z,10.60
2023-04-26T08:50:55.923Z,10.60
2023-04-26T08:51:58.610Z,10.60
2023-04-26T08:53:00.365Z,10.60
2023-04-26T08:54:04.934Z,10.60
2023-04-26T08:55:09.616Z,10.60
2023-04-26T08:56:13.032Z,10.60
2023-04-26T08:57:15.544Z,10.70
2023-04-26T08:58:21.507Z,10.60
2023-04-26T08:59:23.625Z,10.60
2023-04-26T09:00:26.131Z,10.70
2023-04-26T09:01:29.877Z,10.70
2023-04-26T09:02:32.093Z,10.70
2023-04-26T09:03:34.650Z,10.70
2023-04-26T09:04:37.668Z,10.70
2023-04-26T09:05:45.989Z,10.80
2023-04-26T09:06:49.724Z,10.80
2023-04-26T09:07:53.509Z,10.70
2023-04-26T09:08:56.210Z,10.70
2023-04-26T09:09:59.212Z,10.70
2023-04-26T09:11:01.755Z,10.70
2023-04-26T09:12:04.252Z,10.80
2023-04-26T09:13:06.106Z,10.80
2023-04-26T09:14:07.809Z,10.80
2023-04-26T09:15:10.690Z,10.80
2023-04-26T09:16:12.540Z,10.90
2023-04-26T09:17:30.732Z,10.80
2023-04-26T09:18:33.883Z,10.90
2023-04-26T09:19:42.607Z,10.90
2023-04-26T09:20:45.837Z,10.80
2023-04-26T09:21:47.674Z,10.80
2023-04-26T09:22:51.978Z,10.80
2023-04-26T09:24:04.354Z,10.70
2023-04-26T09:25:07.182Z,10.80
2023-04-26T09:26:17.152Z,10.70
2023-04-26T09:27:19.804Z,10.80
2023-04-26T09:28:24.085Z,10.90
2023-04-26T09:29:26.023Z,10.90
2023-04-26T09:30:28.617Z,10.90
2023-04-26T09:31:39.148Z,10.90
2023-04-26T09:32:51.942Z,11.00
2023-04-26T09:34:00.536Z,11.00
2023-04-26T09:35:02.254Z,11.10
2023-04-26T09:36:13.460Z,11.10
2023-04-26T09:37:15.343Z,11.20
2023-04-26T09:38:18.658Z,11.20
2023-04-26T09:39:35.446Z,11.20
2023-04-26T09:40:46.156Z,11.30
2023-04-26T09:41:47.898Z,11.30
2023-04-26T09:43:00.290Z,11.40
2023-04-26T09:44:02.216Z,11.40
2023-04-26T09:45:07.393Z,11.50
2023-04-26T09:46:09.575Z,11.50
2023-04-26T09:47:12.364Z,11.60
2023-04-26T09:48:16.982Z,11.70
2023-04-26T09:49:18.869Z,11.80
2023-04-26T09:50:31.525Z,11.80
2023-04-26T09:51:33.256Z,11.90
2023-04-26T09:52:44.452Z,12.00
2023-04-26T09:53:47.735Z,12.00
2023-04-26T09:54:54.361Z,12.00
2023-04-26T09:55:56.940Z,12.10
2023-04-26T09:57:02.768Z,12.10
2023-04-26T09:58:11.206Z,12.10
2023-04-26T09:59:13.426Z,12.00
2023-04-26T10:00:15.571Z,12.00
2023-04-26T10:01:19.108Z,12.00
2023-04-26T10:02:22.987Z,11.90
2023-04-26T10:03:25.559Z,11.90
2023-04-26T10:04:27.453Z,11.90
2023-04-26T10:05:33.846Z,11.90
2023-04-26T10:06:36.023Z,11.90
2023-04-26T10:07:37.860Z,11.90
2023-04-26T10:08:39.735Z,11.80
2023-04-26T10:09:42.314Z,11.80
2023-04-26T10:10:45.883Z,11.80
2023-04-26T10:11:47.685Z,11.70
2023-04-26T10:12:49.353Z,11.60
2023-04-26T10:13:51.842Z,11.70
2023-04-26T10:14:53.589Z,11.80
2023-04-26T10:15:56.766Z,11.90
2023-04-26T10:16:58.589Z,11.80
2023-04-26T10:18:00.627Z,11.80
2023-04-26T10:19:02.530Z,11.80
2023-04-26T10:20:10.707Z,11.80
2023-04-26T10:21:33.682Z,11.90
2023-04-26T10:22:40.537Z,12.00
2023-04-26T10:23:42.666Z,12.00
2023-04-26T10:24:45.748Z,12.10
2023-04-26T10:25:49.513Z,12.10
2023-04-26T10:26:53.054Z,12.10
2023-04-26T10:27:54.851Z,12.20
2023-04-26T10:29:01.744Z,12.30
2023-04-26T10:30:08.048Z,12.40
2023-04-26T10:31:11.033Z,12.50
2023-04-26T10:32:17.288Z,12.60
2023-04-26T10:33:20.290Z,12.70
2023-04-26T10:34:22.203Z,12.70
2023-04-26T10:35:27.873Z,12.90
2023-04-26T10:36:29.735Z,12.90
2023-04-26T10:37:31.505Z,12.70
2023-04-26T10:38:34.078Z,12.70
2023-04-26T10:39:36.941Z,12.60
2023-04-26T10:40:40.370Z,12.60
2023-04-26T10:41:42.159Z,12.60
2023-04-26T10:42:43.906Z,12.60
2023-04-26T10:43:45.673Z,12.50
2023-04-26T10:44:47.750Z,12.50
2023-04-26T10:45:50.353Z,12.50
2023-04-26T10:46:52.844Z,12.50
2023-04-26T10:48:20.124Z,12.50
2023-04-26T10:49:25.690Z,12.50
2023-04-26T10:50:27.716Z,12.50
2023-04-26T10:51:29.633Z,12.50
2023-04-26T10:52:31.692Z,12.50
2023-04-26T10:53:53.868Z,12.50
2023-04-26T10:55:00.033Z,12.40
2023-04-26T10:56:01.834Z,12.40
2023-04-26T10:57:03.697Z,12.30
2023-04-26T10:58:28.965Z,12.40
2023-04-26T10:59:43.463Z,12.40
2023-04-26T11:01:23.393Z,12.50
2023-04-26T11:02:55.251Z,12.50
2023-04-26T11:03:57.616Z,12.50
2023-04-26T11:05:00.671Z,12.50
2023-04-26T11:06:15.736Z,12.60
2023-04-26T11:07:37.112Z,12.60
2023-04-26T11:08:38.862Z,12.70
2023-04-26T11:09:48.205Z,12.80
2023-04-26T11:10:52.445Z,12.90
2023-04-26T11:11:54.307Z,12.90
2023-04-26T11:13:03.825Z,13.00
2023-04-26T11:14:06.216Z,13.10
2023-04-26T11:15:08.944Z,13.10
2023-04-26T11:16:15.240Z,13.10
2023-04-26T11:17:17.057Z,13.10
2023-04-26T11:18:22.298Z,13.10
2023-04-26T11:19:24.108Z,13.20
2023-04-26T11:20:31.445Z,13.30
2023-04-26T11:21:33.530Z,13.30
2023-04-26T11:22:40.136Z,13.30
2023-04-26T11:23:41.900Z,13.40
2023-04-26T11:24:43.620Z,13.40
2023-04-26T11:25:45.489Z,13.50
2023-04-26T11:26:52.089Z,13.50
2023-04-26T11:28:02.239Z,13.50
2023-04-26T11:29:04.579Z,13.60
2023-04-26T11:30:07.155Z,13.60
2023-04-26T11:31:09.584Z,13.50
2023-04-26T11:32:13.083Z,13.50
2023-04-26T11:33:19.994Z,13.40
2023-04-26T11:34:44.025Z,13.40
2023-04-26T11:35:58.573Z,13.40
2023-04-26T11:37:05.291Z,13.40
2023-04-26T11:38:07.577Z,13.40
2023-04-26T11:39:09.459Z,13.40
2023-04-26T11:40:11.948Z,13.40
2023-04-26T11:41:13.730Z,13.50
2023-04-26T11:42:15.612Z,13.60
2023-04-26T11:43:17.433Z,13.70
2023-04-26T11:44:20.697Z,13.90
2023-04-26T11:45:22.466Z,14.10
2023-04-26T11:46:24.758Z,14.30
2023-04-26T11:47:30.784Z,14.40
2023-04-26T11:48:35.020Z,14.60
2023-04-26T11:49:37.899Z,14.60
2023-04-26T11:50:40.312Z,14.60
2023-04-26T11:51:42.913Z,14.60
2023-04-26T11:52:45.015Z,14.60
2023-04-26T11:53:46.705Z,14.60
2023-04-26T11:54:48.440Z,14.60
2023-04-26T11:55:51.009Z,14.60
2023-04-26T11:56:52.840Z,14.70
2023-04-26T11:57:54.659Z,14.70
2023-04-26T11:58:58.456Z,14.70
2023-04-26T12:00:16.108Z,14.70
2023-04-26T12:01:28.277Z,14.60
2023-04-26T12:02:30.790Z,14.50
2023-04-26T12:03:35.457Z,14.60
2023-04-26T12:04:39.960Z,14.50
2023-04-26T12:05:41.900Z,14.60
2023-04-26T12:06:46.383Z,14.50
2023-04-26T12:07:56.644Z,14.60
2023-04-26T12:09:01.911Z,14.60
2023-04-26T12:10:20.607Z,14.50
2023-04-26T12:11:22.461Z,14.60
2023-04-26T12:12:24.404Z,14.70
2023-04-26T12:13:26.716Z,14.80
2023-04-26T12:14:36.191Z,14.80
2023-04-26T12:18:23.875Z,14.90
2023-04-26T12:19:26.386Z,14.90
2023-04-26T12:20:29.623Z,14.80
2023-04-26T12:21:42.131Z,14.80
2023-04-26T12:22:57.935Z,14.80
2023-04-26T12:23:59.752Z,14.90
2023-04-26T12:25:06.379Z,14.90
2023-04-26T12:26:12.059Z,14.90
2023-04-26T12:27:20.912Z,14.80
2023-04-26T12:28:23.711Z,14.80
2023-04-26T12:29:26.041Z,14.70
2023-04-26T12:30:29.273Z,14.50
2023-04-26T12:31:30.991Z,14.40
2023-04-26T12:32:32.795Z,14.30
2023-04-26T12:33:35.816Z,14.30
2023-04-26T12:34:37.678Z,14.10
2023-04-26T12:35:39.883Z,14.10
2023-04-26T12:36:44.483Z,14.10
2023-04-26T12:37:48.025Z,14.20
2023-04-26T12:38:49.756Z,14.10
2023-04-26T12:39:51.454Z,14.10
2023-04-26T12:40:53.147Z,14.00
2023-04-26T12:41:55.339Z,14.00
2023-04-26T12:42:57.699Z,14.00
2023-04-26T12:43:59.478Z,14.10
2023-04-26T12:45:01.461Z,14.10
2023-04-26T12:46:03.452Z,14.10
2023-04-26T12:47:05.678Z,13.90
2023-04-26T12:48:07.713Z,13.90
2023-04-26T12:49:09.449Z,13.90
2023-04-26T12:50:12.800Z,13.80
2023-04-26T12:51:14.602Z,13.80
2023-04-26T12:52:16.412Z,13.70
2023-04-26T12:53:18.716Z,13.70
2023-04-26T12:54:20.462Z,13.80
2023-04-26T12:55:22.335Z,13.80
2023-04-26T12:56:24.872Z,13.90
2023-04-26T12:57:26.678Z,14.00
2023-04-26T12:58:29.158Z,14.00
2023-04-26T12:59:30.884Z,14.00
2023-04-26T13:00:32.598Z,14.00
2023-04-26T13:01:34.408Z,14.00
2023-04-26T13:02:36.626Z,14.00
2023-04-26T13:03:39.073Z,14.00
2023-04-26T13:04:41.872Z,14.10
2023-04-26T13:05:44.302Z,14.10
2023-04-26T13:06:46.796Z,14.10
2023-04-26T13:07:48.560Z,14.20
2023-04-26T13:08:50.773Z,14.20
2023-04-26T13:09:52.579Z,14.30
2023-04-26T13:10:54.371Z,14.40
2023-04-26T13:11:56.097Z,14.50
2023-04-26T13:12:58.439Z,14.60
2023-04-26T13:14:00.190Z,14.70
2023-04-26T13:15:02.021Z,14.70
2023-04-26T13:16:04.066Z,14.80
2023-04-26T13:17:07.303Z,14.80
2023-04-26T13:18:09.170Z,14.90
2023-04-26T13:19:11.565Z,14.80
2023-04-26T13:20:13.841Z,14.90
2023-04-26T13:21:15.628Z,14.90
2023-04-26T13:22:17.840Z,14.90
2023-04-26T13:23:19.624Z,14.90
2023-04-26T13:24:22.106Z,14.80
2023-04-26T13:25:23.898Z,14.80
2023-04-26T13:26:27.671Z,14.80
2023-04-26T13:27:31.682Z,14.70
2023-04-26T13:28:34.592Z,14.60
2023-04-26T13:29:36.627Z,14.60
2023-04-26T13:30:38.392Z,14.70
2023-04-26T13:31:40.499Z,14.70
2023-04-26T13:32:42.841Z,14.70
2023-04-26T13:33:47.439Z,14.70
2023-04-26T13:34:49.907Z,14.80
2023-04-26T13:35:51.686Z,14.90
2023-04-26T13:36:53.911Z,15.00
2023-04-26T13:37:56.324Z,15.10
2023-04-26T13:38:58.093Z,15.20
2023-04-26T13:54:29.672Z,16.30
2023-04-26T13:55:31.665Z,16.20
2023-04-26T13:56:33.644Z,16.20
2023-04-26T13:57:36.016Z,16.00
2023-04-26T13:58:38.043Z,15.90
2023-04-26T13:59:40.595Z,15.90
2023-04-26T14:00:42.449Z,15.80
2023-04-26T14:01:44.389Z,15.90
2023-04-26T14:02:46.395Z,15.80
2023-04-26T14:03:48.429Z,15.80
2023-04-26T14:04:50.508Z,15.70
2023-04-26T14:05:52.640Z,15.70
2023-04-26T14:06:54.412Z,15.60
2023-04-26T14:07:57.117Z,15.60
2023-04-26T14:08:59.121Z,15.60